sensor_id;sensor_type;location;lat;lon;timestamp;temperature;humidity
38359;DHT22;42072;48.044;14.416;2024-01-15T00:00:35;-4.60;68.70
38359;DHT22;42072;48.044;14.416;2024-01-15T00:03:03;-4.50;58.10
38359;DHT22;42072;48.044;14.416;2024-01-15T00:05:30;-4.50;43.80
38359;DHT22;42072;48.044;14.416;2024-01-15T00:07:57;-4.60;22.80
38359;DHT22;42072;48.044;14.416;2024-01-15T00:10:24;-4.60;5.10
38359;DHT22;42072;48.044;14.416;2024-01-15T00:12:51;-4.60;1.00
38359;DHT22;42072;48.044;14.416;2024-01-15T00:15:18;-4.60;1.00
38359;DHT22;42072;48.044;14.416;2024-01-15T00:17:46;-4.70;1.00
38359;DHT22;42072;48.044;14.416;2024-01-15T00:20:13;-4.70;1.00
38359;DHT22;42072;48.044;14.416;2024-01-15T00:22:40;-4.70;1.00
38359;DHT22;42072;48.044;14.416;2024-01-15T00:25:07;-4.60;1.00
38359;DHT22;42072;48.044;14.416;2024-01-15T00:27:35;-4.50;1.00
38359;DHT22;42072;48.044;14.416;2024-01-15T00:30:02;-4.50;1.00
38359;DHT22;42072;48.044;14.416;2024-01-15T00:32:29;-4.40;1.00
38359;DHT22;42072;48.044;14.416;2024-01-15T00:34:57;-4.40;1.00
38359;DHT22;42072;48.044;14.416;2024-01-15T00:37:24;-4.30;1.00
38359;DHT22;42072;48.044;14.416;2024-01-15T00:39:51;-4.20;1.00
38359;DHT22;42072;48.044;14.416;2024-01-15T00:42:18;-4.20;1.00
38359;DHT22;42072;48.044;14.416;2024-01-15T00:44:45;-4.20;1.00
38359;DHT22;42072;48.044;14.416;2024-01-15T00:47:12;-4.10;1.00
38359;DHT22;42072;48.044;14.416;2024-01-15T00:49:40;-4.10;1.00
38359;DHT22;42072;48.044;14.416;2024-01-15T00:52:07;-4.10;1.00
38359;DHT22;42072;48.044;14.416;2024-01-15T00:54:34;-4.10;1.00
38359;DHT22;42072;48.044;14.416;2024-01-15T00:57:01;-4.10;1.00
38359;DHT22;42072;48.044;14.416;2024-01-15T00:59:28;-4.00;1.00
38359;DHT22;42072;48.044;14.416;2024-01-15T01:01:55;-4.00;1.00
38359;DHT22;42072;48.044;14.416;2024-01-15T01:04:22;-4.00;1.00
38359;DHT22;42072;48.044;14.416;2024-01-15T01:06:50;-4.00;1.00
38359;DHT22;42072;48.044;14.416;2024-01-15T01:09:17;-4.10;1.00
38359;DHT22;42072;48.044;14.416;2024-01-15T01:11:44;-4.00;1.00
38359;DHT22;42072;48.044;14.416;2024-01-15T01:14:11;-4.00;1.00
38359;DHT22;42072;48.044;14.416;2024-01-15T01:16:38;-4.00;1.00
38359;DHT22;42072;48.044;14.416;2024-01-15T01:19:06;-4.00;1.00
38359;DHT22;42072;48.044;14.416;2024-01-15T01:21:35;-3.90;1.00
38359;DHT22;42072;48.044;14.416;2024-01-15T01:24:02;-3.90;1.00
38359;DHT22;42072;48.044;14.416;2024-01-15T01:26:29;-3.90;1.00
38359;DHT22;42072;48.044;14.416;2024-01-15T01:28:56;-3.90;1.00
38359;DHT22;42072;48.044;14.416;2024-01-15T01:31:24;-3.90;1.00
38359;DHT22;42072;48.044;14.416;2024-01-15T01:33:51;-3.80;1.00
38359;DHT22;42072;48.044;14.416;2024-01-15T01:36:18;-3.80;1.00
38359;DHT22;42072;48.044;14.416;2024-01-15T01:38:45;-3.70;1.00
38359;DHT22;42072;48.044;14.416;2024-01-15T01:41:12;-3.70;1.00
38359;DHT22;42072;48.044;14.416;2024-01-15T01:43:39;-3.70;1.00
38359;DHT22;42072;48.044;14.416;2024-01-15T01:46:06;-3.70;1.00
38359;DHT22;42072;48.044;14.416;2024-01-15T01:48:35;-3.70;1.00
38359;DHT22;42072;48.044;14.416;2024-01-15T01:51:03;-3.70;1.00
38359;DHT22;42072;48.044;14.416;2024-01-15T01:53:32;-3.70;1.00
38359;DHT22;42072;48.044;14.416;2024-01-15T01:56:02;-3.60;1.00
38359;DHT22;42072;48.044;14.416;2024-01-15T01:58:29;-3.60;1.00
38359;DHT22;42072;48.044;14.416;2024-01-15T02:00:57;-3.60;1.00
38359;DHT22;42072;48.044;14.416;2024-01-15T02:03:27;-3.60;1.00
38359;DHT22;42072;48.044;14.416;2024-01-15T02:05:55;-3.60;1.00
38359;DHT22;42072;48.044;14.416;2024-01-15T02:08:23;-3.60;1.00
38359;DHT22;42072;48.044;14.416;2024-01-15T02:10:50;-3.60;1.00
38359;DHT22;42072;48.044;14.416;2024-01-15T02:13:17;-3.70;1.00
38359;DHT22;42072;48.044;14.416;2024-01-15T02:15:44;-3.70;1.00
38359;DHT22;42072;48.044;14.416;2024-01-15T02:18:12;-3.80;1.00
38359;DHT22;42072;48.044;14.416;2024-01-15T02:20:39;-3.80;1.00
38359;DHT22;42072;48.044;14.416;2024-01-15T02:25:33;-3.90;1.00
38359;DHT22;42072;48.044;14.416;2024-01-15T02:28:01;-3.90;1.00
38359;DHT22;42072;48.044;14.416;2024-01-15T02:30:28;-3.90;1.00
38359;DHT22;42072;48.044;14.416;2024-01-15T02:32:56;-3.80;1.00
38359;DHT22;42072;48.044;14.416;2024-01-15T02:35:23;-3.70;1.00
38359;DHT22;42072;48.044;14.416;2024-01-15T02:37:50;-3.50;1.00
38359;DHT22;42072;48.044;14.416;2024-01-15T02:40:17;-3.40;1.00
38359;DHT22;42072;48.044;14.416;2024-01-15T02:42:44;-3.30;1.00
38359;DHT22;42072;48.044;14.416;2024-01-15T02:45:12;-3.20;1.00
38359;DHT22;42072;48.044;14.416;2024-01-15T02:47:39;-3.20;1.00
38359;DHT22;42072;48.044;14.416;2024-01-15T02:50:06;-3.20;1.00
38359;DHT22;42072;48.044;14.416;2024-01-15T02:52:33;-3.20;1.00
38359;DHT22;42072;48.044;14.416;2024-01-15T02:55:00;-3.20;1.00
38359;DHT22;42072;48.044;14.416;2024-01-15T02:57:27;-3.10;1.00
38359;DHT22;42072;48.044;14.416;2024-01-15T02:59:55;-2.90;1.00
38359;DHT22;42072;48.044;14.416;2024-01-15T03:02:22;-3.00;1.00
38359;DHT22;42072;48.044;14.416;2024-01-15T03:04:49;-2.90;1.00
38359;DHT22;42072;48.044;14.416;2024-01-15T03:07:16;-2.40;1.00
38359;DHT22;42072;48.044;14.416;2024-01-15T03:09:43;-2.20;1.00
38359;DHT22;42072;48.044;14.416;2024-01-15T03:12:10;-1.80;1.00
38359;DHT22;42072;48.044;14.416;2024-01-15T03:14:38;-1.60;99.90
38359;DHT22;42072;48.044;14.416;2024-01-15T03:17:05;-1.50;99.90
38359;DHT22;42072;48.044;14.416;2024-01-15T03:19:34;-1.20;99.90
38359;DHT22;42072;48.044;14.416;2024-01-15T03:22:01;-1.10;99.90
38359;DHT22;42072;48.044;14.416;2024-01-15T03:24:31;-0.90;99.90
38359;DHT22;42072;48.044;14.416;2024-01-15T03:26:58;-0.70;99.90
38359;DHT22;42072;48.044;14.416;2024-01-15T03:29:26;-0.50;99.90
38359;DHT22;42072;48.044;14.416;2024-01-15T03:31:53;-0.30;99.90
38359;DHT22;42072;48.044;14.416;2024-01-15T03:34:20;-0.20;99.90
38359;DHT22;42072;48.044;14.416;2024-01-15T03:36:47;0.00;95.20
38359;DHT22;42072;48.044;14.416;2024-01-15T03:39:15;0.10;61.30
38359;DHT22;42072;48.044;14.416;2024-01-15T03:41:43;0.20;29.80
38359;DHT22;42072;48.044;14.416;2024-01-15T03:44:10;0.30;6.30
38359;DHT22;42072;48.044;14.416;2024-01-15T03:46:37;0.40;1.00
38359;DHT22;42072;48.044;14.416;2024-01-15T03:49:04;0.40;1.00
38359;DHT22;42072;48.044;14.416;2024-01-15T03:51:32;0.50;1.00
38359;DHT22;42072;48.044;14.416;2024-01-15T03:53:59;0.50;1.00
38359;DHT22;42072;48.044;14.416;2024-01-15T03:56:26;0.40;1.00
38359;DHT22;42072;48.044;14.416;2024-01-15T03:58:53;0.40;1.00
38359;DHT22;42072;48.044;14.416;2024-01-15T04:01:20;0.40;1.00
38359;DHT22;42072;48.044;14.416;2024-01-15T04:03:47;0.40;1.00
38359;DHT22;42072;48.044;14.416;2024-01-15T04:06:15;0.30;1.00
38359;DHT22;42072;48.044;14.416;2024-01-15T04:08:42;0.30;1.00
38359;DHT22;42072;48.044;14.416;2024-01-15T04:11:09;0.30;1.00
38359;DHT22;42072;48.044;14.416;2024-01-15T04:13:36;0.20;1.00
38359;DHT22;42072;48.044;14.416;2024-01-15T04:16:07;0.10;1.00
38359;DHT22;42072;48.044;14.416;2024-01-15T04:18:34;0.10;1.00
38359;DHT22;42072;48.044;14.416;2024-01-15T04:21:03;0.10;1.00
38359;DHT22;42072;48.044;14.416;2024-01-15T04:23:30;0.00;1.00
38359;DHT22;42072;48.044;14.416;2024-01-15T04:25:57;0.00;1.00
38359;DHT22;42072;48.044;14.416;2024-01-15T04:28:25;-0.10;1.00
38359;DHT22;42072;48.044;14.416;2024-01-15T04:30:52;-0.20;1.00
38359;DHT22;42072;48.044;14.416;2024-01-15T04:33:19;-0.20;1.00
38359;DHT22;42072;48.044;14.416;2024-01-15T04:35:47;-0.20;1.00
38359;DHT22;42072;48.044;14.416;2024-01-15T04:38:14;-0.20;1.00
38359;DHT22;42072;48.044;14.416;2024-01-15T04:40:41;-0.30;1.00
38359;DHT22;42072;48.044;14.416;2024-01-15T04:43:08;-0.30;1.00
38359;DHT22;42072;48.044;14.416;2024-01-15T04:45:35;-0.20;1.00
38359;DHT22;42072;48.044;14.416;2024-01-15T04:48:03;-0.30;1.00
38359;DHT22;42072;48.044;14.416;2024-01-15T04:50:30;-0.30;1.00
38359;DHT22;42072;48.044;14.416;2024-01-15T04:52:57;-0.30;1.00
38359;DHT22;42072;48.044;14.416;2024-01-15T04:55:24;-0.30;1.00
38359;DHT22;42072;48.044;14.416;2024-01-15T04:57:51;-0.30;1.80
38359;DHT22;42072;48.044;14.416;2024-01-15T05:00:18;-0.40;6.80
38359;DHT22;42072;48.044;14.416;2024-01-15T05:02:46;-0.40;15.90
38359;DHT22;42072;48.044;14.416;2024-01-15T05:05:13;-0.40;22.90
38359;DHT22;42072;48.044;14.416;2024-01-15T05:07:40;-0.50;26.40
38359;DHT22;42072;48.044;14.416;2024-01-15T05:10:08;-0.40;19.40
38359;DHT22;42072;48.044;14.416;2024-01-15T05:12:35;-0.40;11.80
38359;DHT22;42072;48.044;14.416;2024-01-15T05:15:03;-0.40;1.00
38359;DHT22;42072;48.044;14.416;2024-01-15T05:17:30;-0.30;1.00
38359;DHT22;42072;48.044;14.416;2024-01-15T05:19:58;-0.30;1.00
38359;DHT22;42072;48.044;14.416;2024-01-15T05:22:25;-0.30;1.00
38359;DHT22;42072;48.044;14.416;2024-01-15T05:24:52;-0.30;1.00
38359;DHT22;42072;48.044;14.416;2024-01-15T05:27:20;-0.30;1.00
38359;DHT22;42072;48.044;14.416;2024-01-15T05:29:47;-0.30;1.00
38359;DHT22;42072;48.044;14.416;2024-01-15T05:32:14;-0.30;1.00
38359;DHT22;42072;48.044;14.416;2024-01-15T05:34:41;-0.40;1.00
38359;DHT22;42072;48.044;14.416;2024-01-15T05:37:08;-0.40;1.00
38359;DHT22;42072;48.044;14.416;2024-01-15T05:39:35;-0.40;1.00
38359;DHT22;42072;48.044;14.416;2024-01-15T05:42:02;-0.40;1.00
38359;DHT22;42072;48.044;14.416;2024-01-15T05:44:30;-0.40;1.00
38359;DHT22;42072;48.044;14.416;2024-01-15T05:46:57;-0.50;1.00
38359;DHT22;42072;48.044;14.416;2024-01-15T05:49:24;-0.60;2.80
38359;DHT22;42072;48.044;14.416;2024-01-15T05:51:51;-0.60;11.10
38359;DHT22;42072;48.044;14.416;2024-01-15T05:54:18;-0.60;17.60
38359;DHT22;42072;48.044;14.416;2024-01-15T05:56:47;-0.60;24.50
38359;DHT22;42072;48.044;14.416;2024-01-15T05:59:14;-0.60;24.80
38359;DHT22;42072;48.044;14.416;2024-01-15T06:01:41;-0.60;29.90
38359;DHT22;42072;48.044;14.416;2024-01-15T06:04:09;-0.60;32.80
38359;DHT22;42072;48.044;14.416;2024-01-15T06:06:36;-0.60;38.80
38359;DHT22;42072;48.044;14.416;2024-01-15T06:09:03;-0.60;43.10
38359;DHT22;42072;48.044;14.416;2024-01-15T06:11:32;-0.70;43.40
38359;DHT22;42072;48.044;14.416;2024-01-15T06:13:59;-0.60;49.70
38359;DHT22;42072;48.044;14.416;2024-01-15T06:16:29;-0.60;49.90
38359;DHT22;42072;48.044;14.416;2024-01-15T06:18:57;-0.60;57.30
38359;DHT22;42072;48.044;14.416;2024-01-15T06:21:24;-0.50;54.00
38359;DHT22;42072;48.044;14.416;2024-01-15T06:23:52;-0.50;30.50
38359;DHT22;42072;48.044;14.416;2024-01-15T06:26:19;-0.40;15.20
38359;DHT22;42072;48.044;14.416;2024-01-15T06:28:46;-0.30;1.00
38359;DHT22;42072;48.044;14.416;2024-01-15T06:31:13;-0.20;1.00
38359;DHT22;42072;48.044;14.416;2024-01-15T06:33:40;0.00;1.00
38359;DHT22;42072;48.044;14.416;2024-01-15T06:36:08;0.00;1.00
38359;DHT22;42072;48.044;14.416;2024-01-15T06:38:35;0.10;1.00
38359;DHT22;42072;48.044;14.416;2024-01-15T06:41:02;0.40;1.00
38359;DHT22;42072;48.044;14.416;2024-01-15T06:43:29;0.40;1.00
38359;DHT22;42072;48.044;14.416;2024-01-15T06:45:56;0.40;1.00
38359;DHT22;42072;48.044;14.416;2024-01-15T06:48:24;0.50;1.00
38359;DHT22;42072;48.044;14.416;2024-01-15T06:50:51;0.50;1.00
38359;DHT22;42072;48.044;14.416;2024-01-15T06:53:19;0.50;1.00
38359;DHT22;42072;48.044;14.416;2024-01-15T06:55:46;0.60;1.00
38359;DHT22;42072;48.044;14.416;2024-01-15T06:58:13;0.60;1.00
38359;DHT22;42072;48.044;14.416;2024-01-15T07:00:40;0.60;1.00
38359;DHT22;42072;48.044;14.416;2024-01-15T07:03:07;0.70;1.00
38359;DHT22;42072;48.044;14.416;2024-01-15T07:05:35;0.70;1.00
38359;DHT22;42072;48.044;14.416;2024-01-15T07:08:04;0.70;1.00
38359;DHT22;42072;48.044;14.416;2024-01-15T07:10:31;0.70;1.00
38359;DHT22;42072;48.044;14.416;2024-01-15T07:13:02;0.70;1.00
38359;DHT22;42072;48.044;14.416;2024-01-15T07:15:29;0.80;1.00
38359;DHT22;42072;48.044;14.416;2024-01-15T07:17:57;0.80;1.00
38359;DHT22;42072;48.044;14.416;2024-01-15T07:20:24;0.90;1.00
38359;DHT22;42072;48.044;14.416;2024-01-15T07:22:51;0.90;1.00
38359;DHT22;42072;48.044;14.416;2024-01-15T07:25:18;1.00;1.00
38359;DHT22;42072;48.044;14.416;2024-01-15T07:27:45;1.10;1.00
38359;DHT22;42072;48.044;14.416;2024-01-15T07:30:13;1.10;1.00
38359;DHT22;42072;48.044;14.416;2024-01-15T07:32:41;1.10;1.00
38359;DHT22;42072;48.044;14.416;2024-01-15T07:35:08;1.10;1.00
38359;DHT22;42072;48.044;14.416;2024-01-15T07:37:37;1.10;1.00
38359;DHT22;42072;48.044;14.416;2024-01-15T07:40:04;1.10;1.00
38359;DHT22;42072;48.044;14.416;2024-01-15T07:42:34;1.10;1.00
38359;DHT22;42072;48.044;14.416;2024-01-15T07:45:01;1.10;1.00
38359;DHT22;42072;48.044;14.416;2024-01-15T07:47:28;1.10;1.00
38359;DHT22;42072;48.044;14.416;2024-01-15T07:49:56;1.10;1.00
38359;DHT22;42072;48.044;14.416;2024-01-15T07:52:27;1.10;1.00
38359;DHT22;42072;48.044;14.416;2024-01-15T07:54:54;1.10;1.00
38359;DHT22;42072;48.044;14.416;2024-01-15T07:57:21;1.10;1.00
38359;DHT22;42072;48.044;14.416;2024-01-15T07:59:49;1.10;1.00
38359;DHT22;42072;48.044;14.416;2024-01-15T08:02:16;1.20;1.00
38359;DHT22;42072;48.044;14.416;2024-01-15T08:04:43;1.20;1.00
38359;DHT22;42072;48.044;14.416;2024-01-15T08:07:11;1.30;1.00
38359;DHT22;42072;48.044;14.416;2024-01-15T08:09:40;1.30;1.00
38359;DHT22;42072;48.044;14.416;2024-01-15T08:12:07;1.40;1.00
38359;DHT22;42072;48.044;14.416;2024-01-15T08:14:35;1.50;1.00
38359;DHT22;42072;48.044;14.416;2024-01-15T08:17:02;1.50;1.00
38359;DHT22;42072;48.044;14.416;2024-01-15T08:19:29;1.60;1.00
38359;DHT22;42072;48.044;14.416;2024-01-15T08:21:57;1.60;1.00
38359;DHT22;42072;48.044;14.416;2024-01-15T08:24:24;1.70;1.00
38359;DHT22;42072;48.044;14.416;2024-01-15T08:26:51;1.80;1.00
38359;DHT22;42072;48.044;14.416;2024-01-15T08:29:18;1.80;1.00
38359;DHT22;42072;48.044;14.416;2024-01-15T08:31:47;1.80;1.00
38359;DHT22;42072;48.044;14.416;2024-01-15T08:34:15;1.80;1.00
38359;DHT22;42072;48.044;14.416;2024-01-15T08:36:42;1.90;1.00
38359;DHT22;42072;48.044;14.416;2024-01-15T08:39:09;1.90;1.00
38359;DHT22;42072;48.044;14.416;2024-01-15T08:41:36;2.00;1.00
38359;DHT22;42072;48.044;14.416;2024-01-15T08:44:03;2.10;1.00
38359;DHT22;42072;48.044;14.416;2024-01-15T08:46:30;2.10;1.00
38359;DHT22;42072;48.044;14.416;2024-01-15T08:48:57;2.20;1.00
38359;DHT22;42072;48.044;14.416;2024-01-15T08:51:25;2.10;1.00
38359;DHT22;42072;48.044;14.416;2024-01-15T08:53:52;2.10;1.00
38359;DHT22;42072;48.044;14.416;2024-01-15T08:56:19;2.30;1.00
38359;DHT22;42072;48.044;14.416;2024-01-15T08:58:46;2.30;1.00
38359;DHT22;42072;48.044;14.416;2024-01-15T09:01:13;2.40;1.00
38359;DHT22;42072;48.044;14.416;2024-01-15T09:03:40;2.50;1.00
38359;DHT22;42072;48.044;14.416;2024-01-15T09:06:10;2.40;1.00
38359;DHT22;42072;48.044;14.416;2024-01-15T09:08:37;2.50;1.00
38359;DHT22;42072;48.044;14.416;2024-01-15T09:11:04;2.50;1.00
38359;DHT22;42072;48.044;14.416;2024-01-15T09:13:31;2.60;1.00
38359;DHT22;42072;48.044;14.416;2024-01-15T09:15:59;2.50;1.00
38359;DHT22;42072;48.044;14.416;2024-01-15T09:18:27;2.50;1.00
38359;DHT22;42072;48.044;14.416;2024-01-15T09:20:54;2.50;1.00
38359;DHT22;42072;48.044;14.416;2024-01-15T09:23:22;2.60;1.00
38359;DHT22;42072;48.044;14.416;2024-01-15T09:25:49;2.70;1.00
38359;DHT22;42072;48.044;14.416;2024-01-15T09:28:16;2.60;1.00
38359;DHT22;42072;48.044;14.416;2024-01-15T09:30:43;2.70;1.00
38359;DHT22;42072;48.044;14.416;2024-01-15T09:33:12;2.70;1.00
38359;DHT22;42072;48.044;14.416;2024-01-15T09:35:39;2.80;1.00
38359;DHT22;42072;48.044;14.416;2024-01-15T09:38:06;2.80;1.00
38359;DHT22;42072;48.044;14.416;2024-01-15T09:40:33;2.70;1.00
38359;DHT22;42072;48.044;14.416;2024-01-15T09:43:01;2.70;1.00
38359;DHT22;42072;48.044;14.416;2024-01-15T09:45:29;2.70;1.00
38359;DHT22;42072;48.044;14.416;2024-01-15T09:47:57;2.60;1.00
38359;DHT22;42072;48.044;14.416;2024-01-15T09:50:24;2.60;1.00
38359;DHT22;42072;48.044;14.416;2024-01-15T09:52:51;2.50;1.00
38359;DHT22;42072;48.044;14.416;2024-01-15T09:55:18;2.50;1.00
38359;DHT22;42072;48.044;14.416;2024-01-15T09:57:46;2.40;1.00
38359;DHT22;42072;48.044;14.416;2024-01-15T10:00:13;2.30;1.00
38359;DHT22;42072;48.044;14.416;2024-01-15T10:02:41;2.40;1.00
38359;DHT22;42072;48.044;14.416;2024-01-15T10:05:08;2.30;1.00
38359;DHT22;42072;48.044;14.416;2024-01-15T10:07:36;2.30;1.00
38359;DHT22;42072;48.044;14.416;2024-01-15T10:10:04;2.30;1.00
38359;DHT22;42072;48.044;14.416;2024-01-15T10:12:32;2.30;1.00
38359;DHT22;42072;48.044;14.416;2024-01-15T10:14:59;2.20;1.00
38359;DHT22;42072;48.044;14.416;2024-01-15T10:17:26;2.30;1.00
38359;DHT22;42072;48.044;14.416;2024-01-15T10:19:55;2.30;1.00
38359;DHT22;42072;48.044;14.416;2024-01-15T10:22:22;2.20;1.00
38359;DHT22;42072;48.044;14.416;2024-01-15T10:24:51;2.20;1.00
38359;DHT22;42072;48.044;14.416;2024-01-15T10:27:18;2.20;1.00
38359;DHT22;42072;48.044;14.416;2024-01-15T10:29:45;2.30;1.00
38359;DHT22;42072;48.044;14.416;2024-01-15T10:32:12;2.50;1.00
38359;DHT22;42072;48.044;14.416;2024-01-15T10:34:39;2.60;1.00
38359;DHT22;42072;48.044;14.416;2024-01-15T10:37:08;2.70;1.00
38359;DHT22;42072;48.044;14.416;2024-01-15T10:39:35;2.80;1.00
38359;DHT22;42072;48.044;14.416;2024-01-15T10:42:04;2.90;99.90
38359;DHT22;42072;48.044;14.416;2024-01-15T10:44:31;2.90;99.90
38359;DHT22;42072;48.044;14.416;2024-01-15T10:46:58;3.10;99.90
38359;DHT22;42072;48.044;14.416;2024-01-15T10:49:25;3.20;99.90
38359;DHT22;42072;48.044;14.416;2024-01-15T10:51:59;3.40;99.90
38359;DHT22;42072;48.044;14.416;2024-01-15T10:54:27;3.40;99.90
38359;DHT22;42072;48.044;14.416;2024-01-15T10:56:58;3.40;99.90
38359;DHT22;42072;48.044;14.416;2024-01-15T10:59:25;3.30;99.90
38359;DHT22;42072;48.044;14.416;2024-01-15T11:01:52;3.30;99.90
38359;DHT22;42072;48.044;14.416;2024-01-15T11:04:23;3.20;99.90
38359;DHT22;42072;48.044;14.416;2024-01-15T11:06:55;3.10;99.90
38359;DHT22;42072;48.044;14.416;2024-01-15T11:09:23;3.20;99.90
38359;DHT22;42072;48.044;14.416;2024-01-15T11:12:09;3.30;99.90
38359;DHT22;42072;48.044;14.416;2024-01-15T11:14:41;3.20;99.90
38359;DHT22;42072;48.044;14.416;2024-01-15T11:17:12;3.30;99.90
38359;DHT22;42072;48.044;14.416;2024-01-15T11:19:43;3.30;99.90
38359;DHT22;42072;48.044;14.416;2024-01-15T11:25:03;3.50;99.90
38359;DHT22;42072;48.044;14.416;2024-01-15T11:30:11;3.60;99.90
38359;DHT22;42072;48.044;14.416;2024-01-15T11:32:39;3.50;99.90
38359;DHT22;42072;48.044;14.416;2024-01-15T11:35:10;3.50;99.90
38359;DHT22;42072;48.044;14.416;2024-01-15T11:40:18;3.50;99.90
38359;DHT22;42072;48.044;14.416;2024-01-15T11:42:45;3.60;99.90
38359;DHT22;42072;48.044;14.416;2024-01-15T11:45:13;3.70;99.90
38359;DHT22;42072;48.044;14.416;2024-01-15T11:47:57;3.70;99.90
38359;DHT22;42072;48.044;14.416;2024-01-15T11:50:28;3.70;99.90
38359;DHT22;42072;48.044;14.416;2024-01-15T11:53:01;3.70;99.90
38359;DHT22;42072;48.044;14.416;2024-01-15T11:55:37;3.70;99.90
38359;DHT22;42072;48.044;14.416;2024-01-15T11:58:08;3.60;99.90
38359;DHT22;42072;48.044;14.416;2024-01-15T12:00:39;3.60;99.90
38359;DHT22;42072;48.044;14.416;2024-01-15T12:03:08;3.70;99.90
38359;DHT22;42072;48.044;14.416;2024-01-15T12:05:36;3.60;99.90
38359;DHT22;42072;48.044;14.416;2024-01-15T12:08:04;3.40;99.90
38359;DHT22;42072;48.044;14.416;2024-01-15T12:10:38;3.50;99.90
38359;DHT22;42072;48.044;14.416;2024-01-15T12:15:33;3.30;99.90
38359;DHT22;42072;48.044;14.416;2024-01-15T12:18:01;3.40;99.90
38359;DHT22;42072;48.044;14.416;2024-01-15T12:20:30;3.40;99.90
38359;DHT22;42072;48.044;14.416;2024-01-15T12:22:57;3.40;99.90
38359;DHT22;42072;48.044;14.416;2024-01-15T12:25:32;3.30;99.90
38359;DHT22;42072;48.044;14.416;2024-01-15T12:28:00;3.20;99.90
38359;DHT22;42072;48.044;14.416;2024-01-15T12:30:28;3.30;99.90
38359;DHT22;42072;48.044;14.416;2024-01-15T12:32:55;3.40;99.90
38359;DHT22;42072;48.044;14.416;2024-01-15T12:35:23;3.40;99.90
38359;DHT22;42072;48.044;14.416;2024-01-15T12:37:51;3.40;99.90
38359;DHT22;42072;48.044;14.416;2024-01-15T12:40:18;3.30;99.90
38359;DHT22;42072;48.044;14.416;2024-01-15T12:42:46;3.40;99.90
38359;DHT22;42072;48.044;14.416;2024-01-15T12:45:13;3.30;99.90
38359;DHT22;42072;48.044;14.416;2024-01-15T12:47:41;3.20;99.90
38359;DHT22;42072;48.044;14.416;2024-01-15T12:50:09;3.30;99.90
38359;DHT22;42072;48.044;14.416;2024-01-15T12:52:45;3.30;99.90
38359;DHT22;42072;48.044;14.416;2024-01-15T12:55:13;3.30;99.90
38359;DHT22;42072;48.044;14.416;2024-01-15T12:57:40;3.40;99.90
38359;DHT22;42072;48.044;14.416;2024-01-15T13:00:08;3.50;99.90
38359;DHT22;42072;48.044;14.416;2024-01-15T13:02:40;3.30;99.90
38359;DHT22;42072;48.044;14.416;2024-01-15T13:05:09;3.30;99.90
38359;DHT22;42072;48.044;14.416;2024-01-15T13:07:41;3.30;99.90
38359;DHT22;42072;48.044;14.416;2024-01-15T13:10:10;3.20;99.90
38359;DHT22;42072;48.044;14.416;2024-01-15T13:12:37;3.10;99.90
38359;DHT22;42072;48.044;14.416;2024-01-15T13:15:05;3.10;99.90
38359;DHT22;42072;48.044;14.416;2024-01-15T13:17:32;3.10;99.90
38359;DHT22;42072;48.044;14.416;2024-01-15T13:20:00;3.10;99.90
38359;DHT22;42072;48.044;14.416;2024-01-15T13:22:27;3.00;99.90
38359;DHT22;42072;48.044;14.416;2024-01-15T13:24:59;3.00;99.90
38359;DHT22;42072;48.044;14.416;2024-01-15T13:27:27;2.90;99.90
38359;DHT22;42072;48.044;14.416;2024-01-15T13:29:55;2.80;99.90
38359;DHT22;42072;48.044;14.416;2024-01-15T13:32:25;2.80;99.90
38359;DHT22;42072;48.044;14.416;2024-01-15T13:34:54;2.80;99.90
38359;DHT22;42072;48.044;14.416;2024-01-15T13:37:22;2.70;99.90
38359;DHT22;42072;48.044;14.416;2024-01-15T13:39:51;2.70;99.90
38359;DHT22;42072;48.044;14.416;2024-01-15T13:42:20;2.70;99.90
38359;DHT22;42072;48.044;14.416;2024-01-15T13:44:50;2.70;99.90
38359;DHT22;42072;48.044;14.416;2024-01-15T13:47:18;2.70;99.90
38359;DHT22;42072;48.044;14.416;2024-01-15T13:49:45;2.60;99.90
38359;DHT22;42072;48.044;14.416;2024-01-15T13:52:12;2.70;99.90
38359;DHT22;42072;48.044;14.416;2024-01-15T13:54:40;2.60;99.90
38359;DHT22;42072;48.044;14.416;2024-01-15T13:57:16;2.60;99.90
38359;DHT22;42072;48.044;14.416;2024-01-15T13:59:46;2.50;99.90
38359;DHT22;42072;48.044;14.416;2024-01-15T14:02:14;2.50;99.90
38359;DHT22;42072;48.044;14.416;2024-01-15T14:04:46;2.50;99.90
38359;DHT22;42072;48.044;14.416;2024-01-15T14:07:14;2.50;99.90
38359;DHT22;42072;48.044;14.416;2024-01-15T14:09:42;2.50;99.90
38359;DHT22;42072;48.044;14.416;2024-01-15T14:12:09;2.40;99.90
38359;DHT22;42072;48.044;14.416;2024-01-15T14:14:36;2.40;99.90
38359;DHT22;42072;48.044;14.416;2024-01-15T14:17:03;2.40;99.90
38359;DHT22;42072;48.044;14.416;2024-01-15T14:19:31;2.40;99.90
38359;DHT22;42072;48.044;14.416;2024-01-15T14:21:58;2.50;99.90
38359;DHT22;42072;48.044;14.416;2024-01-15T14:24:25;2.50;99.90
38359;DHT22;42072;48.044;14.416;2024-01-15T14:26:52;2.50;99.90
38359;DHT22;42072;48.044;14.416;2024-01-15T14:29:19;2.50;99.90
38359;DHT22;42072;48.044;14.416;2024-01-15T14:31:49;2.30;99.90
38359;DHT22;42072;48.044;14.416;2024-01-15T14:34:16;2.30;99.90
38359;DHT22;42072;48.044;14.416;2024-01-15T14:36:45;2.20;99.90
38359;DHT22;42072;48.044;14.416;2024-01-15T14:39:13;2.10;1.00
38359;DHT22;42072;48.044;14.416;2024-01-15T14:41:41;2.10;1.00
38359;DHT22;42072;48.044;14.416;2024-01-15T14:44:09;2.10;1.00
38359;DHT22;42072;48.044;14.416;2024-01-15T14:46:36;2.00;1.00
38359;DHT22;42072;48.044;14.416;2024-01-15T14:49:03;1.90;1.00
38359;DHT22;42072;48.044;14.416;2024-01-15T14:51:30;1.90;1.00
38359;DHT22;42072;48.044;14.416;2024-01-15T14:53:58;1.80;1.00
38359;DHT22;42072;48.044;14.416;2024-01-15T14:56:25;1.70;1.00
38359;DHT22;42072;48.044;14.416;2024-01-15T14:58:52;1.70;1.00
38359;DHT22;42072;48.044;14.416;2024-01-15T15:01:19;1.70;1.00
38359;DHT22;42072;48.044;14.416;2024-01-15T15:03:47;1.60;1.00
38359;DHT22;42072;48.044;14.416;2024-01-15T15:06:15;1.50;1.00
38359;DHT22;42072;48.044;14.416;2024-01-15T15:08:43;1.60;1.00
38359;DHT22;42072;48.044;14.416;2024-01-15T15:11:10;1.60;1.00
38359;DHT22;42072;48.044;14.416;2024-01-15T15:13:39;1.60;1.00
38359;DHT22;42072;48.044;14.416;2024-01-15T15:16:12;1.50;1.00
38359;DHT22;42072;48.044;14.416;2024-01-15T15:18:41;1.70;1.00
38359;DHT22;42072;48.044;14.416;2024-01-15T15:21:10;1.60;1.00
38359;DHT22;42072;48.044;14.416;2024-01-15T15:23:41;1.70;1.00
38359;DHT22;42072;48.044;14.416;2024-01-15T15:26:09;1.70;1.00
38359;DHT22;42072;48.044;14.416;2024-01-15T15:28:36;1.60;99.90
38359;DHT22;42072;48.044;14.416;2024-01-15T15:31:04;1.60;99.90
38359;DHT22;42072;48.044;14.416;2024-01-15T15:33:31;1.70;99.90
38359;DHT22;42072;48.044;14.416;2024-01-15T15:35:59;1.60;99.90
38359;DHT22;42072;48.044;14.416;2024-01-15T15:38:32;1.70;99.90
38359;DHT22;42072;48.044;14.416;2024-01-15T15:40:59;1.70;99.90
38359;DHT22;42072;48.044;14.416;2024-01-15T15:43:26;1.70;99.90
38359;DHT22;42072;48.044;14.416;2024-01-15T15:45:53;1.70;99.90
38359;DHT22;42072;48.044;14.416;2024-01-15T15:48:22;1.70;99.90
38359;DHT22;42072;48.044;14.416;2024-01-15T15:50:52;1.80;99.90